createdAt,value
2018-05-14T00:00:00.701Z,11.90
2018-05-14T00:02:28.135Z,11.90
2018-05-14T00:04:55.566Z,11.90
2018-05-14T00:07:22.999Z,11.90
2018-05-14T00:09:50.476Z,11.90
2018-05-14T00:12:17.908Z,11.90
2018-05-14T00:14:45.348Z,12.00
2018-05-14T00:17:12.782Z,12.00
2018-05-14T00:19:40.982Z,11.90
2018-05-14T00:22:08.407Z,11.90
2018-05-14T00:24:35.842Z,11.90
2018-05-14T00:27:03.296Z,11.90
2018-05-14T00:29:30.734Z,11.90
2018-05-14T00:31:58.182Z,11.90
2018-05-14T00:34:25.602Z,11.80
2018-05-14T00:36:53.027Z,11.80
2018-05-14T00:39:20.481Z,11.80
2018-05-14T00:41:47.919Z,11.70
2018-05-14T00:44:15.346Z,11.70
2018-05-14T00:46:42.939Z,11.70
2018-05-14T00:49:10.374Z,11.70
2018-05-14T00:51:37.798Z,11.70
2018-05-14T00:54:05.487Z,11.70
2018-05-14T00:56:32.923Z,11.70
2018-05-14T00:59:00.349Z,11.70
2018-05-14T01:01:27.776Z,11.70
2018-05-14T01:03:55.211Z,11.70
2018-05-14T01:06:22.654Z,11.70
2018-05-14T01:08:50.082Z,11.70
2018-05-14T01:11:17.526Z,11.70
2018-05-14T01:13:44.968Z,11.70
2018-05-14T01:16:12.545Z,11.80
2018-05-14T01:18:39.989Z,11.80
2018-05-14T01:21:07.414Z,11.80
2018-05-14T01:23:34.846Z,11.70
2018-05-14T01:26:02.286Z,11.80
2018-05-14T01:28:29.730Z,11.80
2018-05-14T01:30:57.159Z,11.80
2018-05-14T01:33:24.581Z,11.70
2018-05-14T01:35:52.005Z,11.70
2018-05-14T01:38:19.435Z,11.70
2018-05-14T01:40:46.881Z,11.70
2018-05-14T01:43:14.299Z,11.70
2018-05-14T01:45:41.738Z,11.70
2018-05-14T01:48:09.185Z,11.70
2018-05-14T01:50:36.609Z,11.70
2018-05-14T01:53:04.062Z,11.70
2018-05-14T01:55:31.498Z,11.70
2018-05-14T01:57:58.932Z,11.70
2018-05-14T02:00:26.642Z,11.70
2018-05-14T02:02:54.071Z,11.70
2018-05-14T02:05:21.520Z,11.70
2018-05-14T02:07:49.724Z,11.80
2018-05-14T02:10:17.142Z,11.80
2018-05-14T02:12:45.357Z,11.70
2018-05-14T02:15:12.776Z,11.70
2018-05-14T02:17:40.228Z,11.70
2018-05-14T02:20:07.655Z,11.70
2018-05-14T02:22:35.090Z,11.70
2018-05-14T02:25:02.529Z,11.70
2018-05-14T02:27:29.961Z,11.70
2018-05-14T02:29:57.399Z,11.60
2018-05-14T02:32:24.822Z,11.60
2018-05-14T02:34:52.253Z,11.60
2018-05-14T02:37:19.706Z,11.60
2018-05-14T02:39:47.139Z,11.70
2018-05-14T02:42:14.570Z,11.70
2018-05-14T02:44:42.046Z,11.70
2018-05-14T02:47:09.464Z,11.70
2018-05-14T02:49:36.905Z,11.70
2018-05-14T02:52:04.351Z,11.70
2018-05-14T02:54:31.775Z,11.70
2018-05-14T02:57:00.118Z,11.70
2018-05-14T02:59:27.551Z,11.60
2018-05-14T03:01:54.985Z,11.70
2018-05-14T03:04:22.427Z,11.70
2018-05-14T03:06:49.868Z,11.70
2018-05-14T03:09:17.303Z,11.70
2018-05-14T03:11:44.744Z,11.70
2018-05-14T03:14:12.187Z,11.70
2018-05-14T03:16:39.618Z,11.70
2018-05-14T03:19:07.367Z,11.70
2018-05-14T03:21:35.388Z,11.70
2018-05-14T03:24:02.819Z,11.70
2018-05-14T03:26:30.274Z,11.70
2018-05-14T03:28:57.726Z,11.70
2018-05-14T03:31:25.181Z,11.70
2018-05-14T03:33:52.612Z,11.70
2018-05-14T03:36:20.063Z,11.70
2018-05-14T03:38:48.261Z,11.70
2018-05-14T03:41:15.706Z,11.70
2018-05-14T03:43:43.164Z,11.70
2018-05-14T03:46:10.586Z,11.70
2018-05-14T03:48:38.019Z,11.70
2018-05-14T03:51:05.774Z,11.70
2018-05-14T03:53:33.206Z,11.70
2018-05-14T03:56:00.639Z,11.70
2018-05-14T03:58:39.755Z,11.70
2018-05-14T04:01:14.795Z,11.70
2018-05-14T04:03:54.838Z,11.70
2018-05-14T04:06:34.099Z,11.70
2018-05-14T04:09:01.561Z,11.70
2018-05-14T04:11:29.763Z,11.70
2018-05-14T04:13:57.197Z,11.70
2018-05-14T04:16:25.450Z,11.70
2018-05-14T04:18:53.948Z,11.70
2018-05-14T04:21:21.390Z,11.70
2018-05-14T04:23:48.838Z,11.70
2018-05-14T04:26:16.269Z,11.70
2018-05-14T04:28:43.968Z,11.70
2018-05-14T04:31:11.392Z,11.80
2018-05-14T04:33:38.816Z,11.80
2018-05-14T04:36:06.557Z,11.80
2018-05-14T04:38:33.978Z,11.90
2018-05-14T04:41:01.406Z,11.90
2018-05-14T04:43:28.863Z,11.90
2018-05-14T04:45:56.296Z,11.90
2018-05-14T04:48:24.246Z,11.90
2018-05-14T04:50:51.716Z,11.90
2018-05-14T04:53:19.178Z,11.90
2018-05-14T04:55:46.611Z,11.90
2018-05-14T04:58:14.049Z,11.90
2018-05-14T05:00:41.507Z,11.90
2018-05-14T05:03:08.940Z,11.90
2018-05-14T05:05:36.399Z,11.90
2018-05-14T05:08:03.842Z,11.90
2018-05-14T05:10:31.360Z,11.90
2018-05-14T05:12:58.711Z,11.90
2018-05-14T05:15:26.153Z,12.00
2018-05-14T05:17:53.583Z,12.00
2018-05-14T05:20:21.010Z,12.10
2018-05-14T05:22:48.454Z,12.10
2018-05-14T05:25:15.872Z,12.10
2018-05-14T05:27:43.315Z,12.10
2018-05-14T05:30:10.902Z,12.10
2018-05-14T05:32:38.387Z,12.10
2018-05-14T05:35:05.804Z,12.10
2018-05-14T05:37:33.253Z,12.20
2018-05-14T05:40:00.686Z,12.20
2018-05-14T05:42:28.100Z,12.20
2018-05-14T05:44:56.451Z,12.30
2018-05-14T05:47:23.877Z,12.30
2018-05-14T05:49:51.310Z,12.40
2018-05-14T05:52:19.764Z,12.40
2018-05-14T05:54:47.107Z,12.50
2018-05-14T05:57:14.543Z,12.50
2018-05-14T05:59:41.984Z,12.50
2018-05-14T06:02:09.740Z,12.60
2018-05-14T06:04:37.166Z,12.70
2018-05-14T06:07:04.602Z,12.80
2018-05-14T06:09:32.434Z,12.80
2018-05-14T06:11:59.843Z,12.90
2018-05-14T06:14:27.277Z,12.90
2018-05-14T06:16:54.725Z,13.00
2018-05-14T06:19:22.154Z,13.10
2018-05-14T06:21:49.866Z,13.20
2018-05-14T06:24:18.073Z,13.30
2018-05-14T06:26:46.446Z,13.30
2018-05-14T06:29:14.035Z,13.30
2018-05-14T06:31:41.483Z,13.30
2018-05-14T06:34:08.924Z,13.30
2018-05-14T06:36:36.367Z,13.40
2018-05-14T06:39:03.837Z,13.40
2018-05-14T06:41:31.281Z,13.50
2018-05-14T06:43:58.867Z,13.50
2018-05-14T06:46:26.301Z,13.80
2018-05-14T06:48:53.745Z,13.90
2018-05-14T06:51:21.187Z,14.10
2018-05-14T06:53:48.616Z,14.10
2018-05-14T06:56:16.059Z,14.20
2018-05-14T06:58:44.262Z,14.70
2018-05-14T07:01:11.694Z,14.70
2018-05-14T07:03:39.886Z,15.10
2018-05-14T07:06:07.603Z,15.10
2018-05-14T07:08:35.039Z,15.10
2018-05-14T07:11:02.475Z,15.10
2018-05-14T07:13:29.909Z,15.00
2018-05-14T07:15:58.120Z,14.80
2018-05-14T07:18:25.554Z,14.80
2018-05-14T07:20:53.013Z,14.90
2018-05-14T07:23:20.442Z,15.00
2018-05-14T07:25:47.898Z,15.20
2018-05-14T07:28:15.340Z,15.20
2018-05-14T07:30:42.783Z,15.30
2018-05-14T07:33:10.271Z,15.10
2018-05-14T07:35:37.647Z,15.10
2018-05-14T07:38:05.116Z,15.00
2018-05-14T07:40:32.700Z,15.00
2018-05-14T07:43:00.182Z,15.10
2018-05-14T07:45:27.571Z,15.30
2018-05-14T07:47:55.017Z,15.40
2018-05-14T07:50:22.473Z,15.60
2018-05-14T07:52:49.959Z,15.60
2018-05-14T07:55:17.400Z,15.60
2018-05-14T07:57:44.782Z,15.70
2018-05-14T08:00:12.455Z,15.80
2018-05-14T08:02:39.791Z,15.80
2018-05-14T08:05:07.230Z,15.90
2018-05-14T08:07:34.923Z,15.90
2018-05-14T08:10:02.357Z,15.90
2018-05-14T08:12:29.790Z,15.90
2018-05-14T08:14:57.303Z,15.90
2018-05-14T08:17:24.737Z,15.80
2018-05-14T08:19:52.926Z,15.70
2018-05-14T08:22:20.502Z,15.70
2018-05-14T08:24:47.927Z,15.60
2018-05-14T08:27:15.360Z,15.50
2018-05-14T08:29:42.802Z,15.40
2018-05-14T08:32:10.235Z,15.20
2018-05-14T08:34:37.678Z,15.20
2018-05-14T08:37:05.237Z,15.10
2018-05-14T08:39:32.567Z,15.00
2018-05-14T08:42:00.027Z,15.10
2018-05-14T08:44:27.464Z,15.20
2018-05-14T08:46:54.898Z,15.30
2018-05-14T08:49:22.335Z,15.40
2018-05-14T08:51:49.767Z,15.50
2018-05-14T08:54:17.346Z,15.70
2018-05-14T08:56:44.636Z,15.80
2018-05-14T08:59:12.079Z,15.90
2018-05-14T09:01:39.675Z,16.00
2018-05-14T09:04:07.112Z,16.10
2018-05-14T09:06:34.530Z,16.10
2018-05-14T09:09:01.967Z,16.10
2018-05-14T09:11:29.402Z,16.10
2018-05-14T09:13:57.882Z,16.00
2018-05-14T09:16:25.316Z,16.00
2018-05-14T09:18:52.749Z,15.90
2018-05-14T09:21:20.207Z,15.80
2018-05-14T09:23:47.673Z,15.70
2018-05-14T09:26:15.107Z,15.70
2018-05-14T09:28:42.535Z,15.60
2018-05-14T09:31:09.982Z,15.60
2018-05-14T09:33:37.419Z,15.50
2018-05-14T09:36:04.858Z,15.50
2018-05-14T09:38:32.299Z,15.40
2018-05-14T09:41:00.029Z,15.40
2018-05-14T09:43:27.466Z,15.30
2018-05-14T09:45:54.912Z,15.40
2018-05-14T09:48:22.361Z,15.40
2018-05-14T09:50:49.807Z,15.40
2018-05-14T09:53:17.260Z,15.40
2018-05-14T09:55:44.699Z,15.50
2018-05-14T09:58:12.905Z,15.70
2018-05-14T10:00:40.347Z,15.70
2018-05-14T10:03:07.779Z,15.70
2018-05-14T10:05:35.220Z,15.80
2018-05-14T10:08:02.663Z,15.80
2018-05-14T10:10:30.102Z,15.80
2018-05-14T10:12:57.582Z,15.80
2018-05-14T10:15:25.011Z,15.80
2018-05-14T10:17:52.516Z,15.80
2018-05-14T10:20:19.986Z,15.80
2018-05-14T10:22:47.415Z,15.70
2018-05-14T10:25:15.176Z,15.70
2018-05-14T10:27:42.618Z,15.60
2018-05-14T10:30:10.061Z,15.60
2018-05-14T10:32:37.515Z,15.60
2018-05-14T10:35:05.033Z,15.60
2018-05-14T10:37:32.479Z,15.60
2018-05-14T10:40:00.704Z,15.60
2018-05-14T10:42:28.151Z,15.60
2018-05-14T10:44:55.579Z,15.70
2018-05-14T10:47:23.036Z,15.70
2018-05-14T10:49:50.475Z,15.70
2018-05-14T10:52:17.919Z,15.70
2018-05-14T10:54:45.471Z,15.70
2018-05-14T10:57:12.905Z,15.80
2018-05-14T10:59:40.360Z,15.80
2018-05-14T11:02:08.130Z,15.80
2018-05-14T11:04:35.579Z,15.70
2018-05-14T11:07:03.011Z,15.70
2018-05-14T11:09:31.387Z,15.60
2018-05-14T11:11:58.867Z,15.60
2018-05-14T11:14:26.310Z,15.50
2018-05-14T11:16:54.563Z,15.40
2018-05-14T11:19:22.010Z,15.40
2018-05-14T11:21:49.452Z,15.40
2018-05-14T11:24:16.883Z,15.40
2018-05-14T11:26:44.331Z,15.40
2018-05-14T11:29:11.790Z,15.40
2018-05-14T11:31:39.228Z,15.40
2018-05-14T11:34:06.657Z,15.50
2018-05-14T11:36:34.117Z,15.50
2018-05-14T11:39:01.548Z,15.60
2018-05-14T11:41:29.005Z,15.70
2018-05-14T11:43:56.571Z,15.60
2018-05-14T11:46:24.028Z,15.60
2018-05-14T11:48:51.507Z,15.60
2018-05-14T11:51:18.963Z,15.50
2018-05-14T11:53:46.394Z,15.50
2018-05-14T11:56:13.838Z,15.50
2018-05-14T11:58:41.298Z,15.40
2018-05-14T12:01:08.738Z,15.40
2018-05-14T12:03:36.186Z,15.40
2018-05-14T12:06:03.643Z,15.40
2018-05-14T12:08:31.085Z,15.30
2018-05-14T12:10:58.710Z,15.30
2018-05-14T12:13:26.151Z,15.30
2018-05-14T12:15:53.741Z,15.40
2018-05-14T12:18:21.179Z,15.40
2018-05-14T12:20:48.625Z,15.40
2018-05-14T12:23:16.087Z,15.70
2018-05-14T12:25:44.840Z,15.90
2018-05-14T12:28:12.992Z,16.30
2018-05-14T12:30:40.514Z,16.30
2018-05-14T12:33:07.962Z,16.40
2018-05-14T12:35:35.537Z,16.50
2018-05-14T12:38:02.979Z,16.70
2018-05-14T12:40:32.459Z,16.80
2018-05-14T12:42:59.911Z,16.80
2018-05-14T12:45:28.296Z,17.00
2018-05-14T12:47:55.743Z,17.10
2018-05-14T12:50:24.013Z,17.00
2018-05-14T12:52:51.442Z,17.00
2018-05-14T12:55:18.887Z,17.00
2018-05-14T12:57:46.331Z,16.90
2018-05-14T13:00:13.791Z,16.80
2018-05-14T13:02:42.013Z,16.70
2018-05-14T13:05:09.460Z,16.70
2018-05-14T13:07:36.894Z,16.60
2018-05-14T13:10:04.357Z,16.50
2018-05-14T13:12:31.814Z,16.40
2018-05-14T13:14:59.386Z,16.30
2018-05-14T13:17:26.856Z,16.30
2018-05-14T13:19:54.280Z,16.20
2018-05-14T13:22:21.726Z,16.30
2018-05-14T13:24:49.288Z,16.30
2018-05-14T13:27:16.874Z,16.30
2018-05-14T13:29:44.333Z,16.40
2018-05-14T13:32:11.885Z,16.40
2018-05-14T13:34:39.889Z,16.30
2018-05-14T13:37:08.098Z,16.30
2018-05-14T13:39:35.768Z,16.30
2018-05-14T13:42:03.189Z,16.30
2018-05-14T13:44:32.237Z,16.30
2018-05-14T13:46:59.907Z,16.30
2018-05-14T13:49:27.346Z,16.40
2018-05-14T13:51:54.847Z,16.40
2018-05-14T13:54:22.442Z,16.40
2018-05-14T13:56:49.943Z,16.50
2018-05-14T13:59:17.573Z,16.60
2018-05-14T14:01:45.146Z,16.70
2018-05-14T14:04:12.580Z,16.80
2018-05-14T14:06:40.027Z,16.90
2018-05-14T14:09:08.237Z,17.20
2018-05-14T14:11:35.687Z,17.20
2018-05-14T14:14:03.119Z,17.20
2018-05-14T14:16:30.579Z,17.20
2018-05-14T14:18:58.802Z,17.10
2018-05-14T14:21:26.239Z,17.10
2018-05-14T14:23:53.833Z,17.10
2018-05-14T14:26:21.120Z,16.90
2018-05-14T14:28:48.549Z,16.80
2018-05-14T14:31:16.012Z,16.70
2018-05-14T14:33:43.740Z,16.70
2018-05-14T14:36:11.295Z,16.60
2018-05-14T14:38:38.622Z,16.60
2018-05-14T14:41:06.087Z,16.60
2018-05-14T14:43:33.581Z,16.70
2018-05-14T14:46:01.050Z,16.70
2018-05-14T14:48:28.491Z,16.70
2018-05-14T14:50:55.930Z,16.80
2018-05-14T14:53:23.391Z,16.80
2018-05-14T14:55:51.124Z,16.80
2018-05-14T14:58:18.693Z,16.80
2018-05-14T15:00:46.071Z,16.80
2018-05-14T15:03:13.827Z,16.80
2018-05-14T15:05:41.272Z,16.80
2018-05-14T15:08:08.702Z,16.80
2018-05-14T15:10:36.160Z,16.70
2018-05-14T15:13:03.598Z,16.70
2018-05-14T15:15:31.047Z,16.60
2018-05-14T15:17:58.508Z,16.60
2018-05-14T15:20:25.963Z,16.60
2018-05-14T15:22:53.419Z,16.50
2018-05-14T15:25:20.870Z,16.50
2018-05-14T15:27:48.319Z,16.50
2018-05-14T15:30:15.759Z,16.50
2018-05-14T15:32:46.630Z,16.60
2018-05-14T15:35:14.287Z,16.60
2018-05-14T15:37:41.778Z,16.60
2018-05-14T15:40:10.215Z,16.60
2018-05-14T15:42:37.667Z,16.50
2018-05-14T15:45:05.102Z,16.50
2018-05-14T15:47:32.543Z,16.50
2018-05-14T15:50:00.089Z,16.50
2018-05-14T15:52:27.435Z,16.40
2018-05-14T15:54:54.891Z,16.30
2018-05-14T15:57:22.335Z,16.30
2018-05-14T15:59:49.783Z,16.30
2018-05-14T16:02:17.261Z,16.20
2018-05-14T16:04:44.739Z,16.20
2018-05-14T16:07:12.186Z,16.10
2018-05-14T16:09:39.630Z,16.10
2018-05-14T16:12:07.086Z,16.00
2018-05-14T16:14:35.396Z,15.90
2018-05-14T16:17:02.803Z,15.90
2018-05-14T16:19:30.278Z,15.90
2018-05-14T16:21:57.728Z,15.90
2018-05-14T16:24:25.264Z,15.80
2018-05-14T16:26:52.620Z,15.90
2018-05-14T16:29:20.067Z,15.90
2018-05-14T16:31:48.275Z,15.80
2018-05-14T16:34:15.744Z,15.80
2018-05-14T16:36:43.190Z,15.80
2018-05-14T16:39:10.647Z,15.80
2018-05-14T16:41:38.155Z,15.70
2018-05-14T16:44:05.617Z,15.70
2018-05-14T16:46:34.020Z,15.70
2018-05-14T16:49:01.534Z,15.60
2018-05-14T16:51:28.908Z,15.60
2018-05-14T16:53:56.322Z,15.60
2018-05-14T16:56:23.801Z,15.50
2018-05-14T16:58:51.246Z,15.60
2018-05-14T17:01:19.680Z,15.60
2018-05-14T17:03:47.129Z,15.70
2018-05-14T17:06:24.911Z,15.70
2018-05-14T17:08:55.583Z,15.80
2018-05-14T17:11:25.077Z,15.80
2018-05-14T17:13:52.546Z,15.80
2018-05-14T17:16:20.039Z,15.80
2018-05-14T17:18:48.306Z,15.70
2018-05-14T17:21:15.747Z,15.70
2018-05-14T17:23:43.442Z,15.70
2018-05-14T17:26:10.975Z,15.70
2018-05-14T17:28:38.595Z,15.70
2018-05-14T17:31:07.019Z,15.70
2018-05-14T17:33:35.256Z,15.70
2018-05-14T17:36:03.513Z,15.60
2018-05-14T17:38:30.974Z,15.60
2018-05-14T17:40:58.423Z,15.60
2018-05-14T17:43:25.870Z,15.60
2018-05-14T17:45:54.235Z,15.50
2018-05-14T17:48:21.667Z,15.50
2018-05-14T17:50:49.119Z,15.40
2018-05-14T17:53:16.593Z,15.40
2018-05-14T17:55:44.070Z,15.40
2018-05-14T17:58:11.651Z,15.40
2018-05-14T18:00:39.115Z,15.30
2018-05-14T18:03:06.570Z,15.30
2018-05-14T18:05:34.880Z,15.30
2018-05-14T18:08:03.376Z,15.20
2018-05-14T18:10:30.896Z,15.20
2018-05-14T18:12:58.402Z,15.20
2018-05-14T18:15:25.943Z,15.20
2018-05-14T18:17:53.452Z,15.20
2018-05-14T18:20:25.909Z,15.20
2018-05-14T18:22:53.350Z,15.20
2018-05-14T18:25:26.594Z,15.20
2018-05-14T18:27:59.921Z,15.20
2018-05-14T18:30:28.283Z,15.10
2018-05-14T18:33:01.398Z,15.10
2018-05-14T18:35:40.813Z,15.10
2018-05-14T18:38:08.503Z,15.10
2018-05-14T18:40:36.468Z,15.00
2018-05-14T18:43:03.979Z,14.90
2018-05-14T18:45:31.588Z,14.70
2018-05-14T18:47:59.371Z,14.60
2018-05-14T18:50:26.874Z,14.40
2018-05-14T18:52:54.328Z,14.30
2018-05-14T18:55:21.948Z,14.30
2018-05-14T18:57:49.484Z,14.20
2018-05-14T19:00:17.121Z,14.20
2018-05-14T19:02:44.853Z,14.20
2018-05-14T19:05:12.308Z,14.10
2018-05-14T19:07:40.145Z,14.00
2018-05-14T19:10:13.466Z,13.90
2018-05-14T19:12:41.256Z,13.90
2018-05-14T19:15:14.588Z,13.80
2018-05-14T19:17:47.837Z,13.70
2018-05-14T19:20:15.420Z,13.60
2018-05-14T19:22:48.530Z,13.50
2018-05-14T19:25:16.013Z,13.50
2018-05-14T19:27:49.179Z,13.50
2018-05-14T19:30:18.684Z,13.60
2018-05-14T19:32:46.415Z,13.60
2018-05-14T19:35:19.511Z,13.70
2018-05-14T19:37:46.947Z,13.70
2018-05-14T19:40:20.083Z,13.80
2018-05-14T19:42:47.631Z,13.80
2018-05-14T19:45:15.107Z,13.80
2018-05-14T19:47:42.647Z,13.90
2018-05-14T19:50:10.980Z,13.90
2018-05-14T19:52:38.528Z,13.90
2018-05-14T19:55:06.973Z,13.90
2018-05-14T19:57:34.719Z,13.90
2018-05-14T20:00:02.488Z,13.90
2018-05-14T20:02:30.089Z,13.90
2018-05-14T20:04:58.422Z,13.90
2018-05-14T20:07:26.111Z,13.90
2018-05-14T20:09:54.185Z,13.90
2018-05-14T20:12:22.320Z,13.90
2018-05-14T20:14:50.310Z,13.90
2018-05-14T20:17:18.496Z,14.00
2018-05-14T20:19:46.090Z,14.00
2018-05-14T20:22:13.923Z,14.10
2018-05-14T20:24:41.491Z,14.20
2018-05-14T20:27:09.149Z,14.20
2018-05-14T20:29:36.810Z,14.20
2018-05-14T20:32:04.372Z,14.30
2018-05-14T20:34:32.000Z,14.20
2018-05-14T20:36:59.450Z,14.20
2018-05-14T20:41:59.192Z,14.20
2018-05-14T20:44:27.564Z,14.20
2018-05-14T20:46:55.281Z,14.20
2018-05-14T20:49:22.827Z,14.20
2018-05-14T20:51:52.494Z,14.20
2018-05-14T20:54:19.972Z,14.20
2018-05-14T20:56:47.428Z,14.20
2018-05-14T20:59:15.692Z,14.20
2018-05-14T21:01:43.150Z,14.10
2018-05-14T21:04:10.592Z,14.20
2018-05-14T21:06:38.055Z,14.20
2018-05-14T21:09:06.432Z,14.30
2018-05-14T21:11:33.964Z,14.30
2018-05-14T21:14:01.463Z,14.30
2018-05-14T21:16:28.935Z,14.30
2018-05-14T21:18:56.374Z,14.30
2018-05-14T21:21:23.861Z,14.30
2018-05-14T21:23:51.282Z,14.30
2018-05-14T21:26:18.740Z,14.30
2018-05-14T21:28:46.210Z,14.30
2018-05-14T21:31:13.721Z,14.30
2018-05-14T21:33:41.134Z,14.30
2018-05-14T21:36:08.610Z,14.20
2018-05-14T21:38:36.045Z,14.20
2018-05-14T21:41:03.489Z,14.20
2018-05-14T21:43:30.931Z,14.20
2018-05-14T21:45:58.364Z,14.20
2018-05-14T21:48:25.826Z,14.20
2018-05-14T21:50:53.271Z,14.20
2018-05-14T21:53:20.735Z,14.10
2018-05-14T21:55:48.214Z,14.10
2018-05-14T21:58:16.737Z,14.10
2018-05-14T22:00:44.167Z,14.10
2018-05-14T22:03:11.615Z,14.10
2018-05-14T22:05:50.650Z,14.00
2018-05-14T22:08:18.127Z,14.00
2018-05-14T22:10:45.711Z,14.00
2018-05-14T22:13:13.153Z,14.00
2018-05-14T22:15:40.638Z,13.90
2018-05-14T22:18:08.118Z,13.90
2018-05-14T22:20:35.620Z,13.90
2018-05-14T22:23:03.069Z,13.90
2018-05-14T22:25:30.599Z,13.90
2018-05-14T22:27:57.964Z,13.90
2018-05-14T22:30:25.399Z,13.90
2018-05-14T22:32:52.836Z,13.90
2018-05-14T22:35:20.313Z,13.90
2018-05-14T22:37:47.780Z,13.90
2018-05-14T22:40:15.223Z,13.80
2018-05-14T22:42:42.702Z,13.80
2018-05-14T22:45:10.142Z,13.80
2018-05-14T22:47:37.588Z,13.80
2018-05-14T22:50:05.056Z,13.80
2018-05-14T22:52:33.267Z,13.80
2018-05-14T22:55:00.705Z,13.80
2018-05-14T22:57:28.146Z,13.90
2018-05-14T22:59:55.625Z,13.90
2018-05-14T23:02:23.042Z,13.80
2018-05-14T23:04:50.485Z,13.80
2018-05-14T23:07:17.938Z,13.80
2018-05-14T23:09:45.387Z,13.70
2018-05-14T23:12:12.832Z,13.70
2018-05-14T23:14:40.279Z,13.70
2018-05-14T23:17:07.886Z,13.70
2018-05-14T23:19:35.322Z,13.60
2018-05-14T23:22:02.755Z,13.60
2018-05-14T23:24:30.207Z,13.50
2018-05-14T23:26:57.662Z,13.40
2018-05-14T23:29:25.099Z,13.40
2018-05-14T23:31:52.554Z,13.30
2018-05-14T23:34:19.995Z,13.30
2018-05-14T23:36:47.476Z,13.20
2018-05-14T23:39:14.899Z,13.20
2018-05-14T23:41:42.326Z,13.20
2018-05-14T23:44:09.780Z,13.20
2018-05-14T23:46:37.971Z,13.30
2018-05-14T23:49:05.427Z,13.30
2018-05-14T23:51:32.863Z,13.30
2018-05-14T23:54:00.303Z,13.40
2018-05-14T23:56:27.769Z,13.40
2018-05-14T23:58:55.210Z,13.40
